createdAt,value
2023-02-09T00:00:11.912Z,8.17
2023-02-09T00:02:39.029Z,7.50
2023-02-09T00:05:05.864Z,7.00
2023-02-09T00:07:32.277Z,7.00
2023-02-09T00:09:58.839Z,7.40
2023-02-09T00:12:43.751Z,6.90
2023-02-09T00:15:10.226Z,6.83
2023-02-09T00:17:37.180Z,6.77
2023-02-09T00:20:05.668Z,6.70
2023-02-09T00:22:32.457Z,6.67
2023-02-09T00:24:58.907Z,6.70
2023-02-09T00:27:25.940Z,7.90
2023-02-09T00:29:52.328Z,6.73
2023-02-09T00:32:18.789Z,6.30
2023-02-09T00:34:45.195Z,7.17
2023-02-09T00:37:11.635Z,8.63
2023-02-09T00:39:38.064Z,7.03
2023-02-09T00:42:07.213Z,6.93
2023-02-09T00:44:40.065Z,7.00
2023-02-09T00:47:07.854Z,7.20
2023-02-09T00:49:34.370Z,7.50
2023-02-09T00:52:00.774Z,7.40
2023-02-09T00:54:27.231Z,6.50
2023-02-09T00:56:53.775Z,6.53
2023-02-09T00:59:20.212Z,8.10
2023-02-09T01:01:46.834Z,7.70
2023-02-09T01:04:13.335Z,7.80
2023-02-09T01:06:39.760Z,7.70
2023-02-09T01:09:06.137Z,6.83
2023-02-09T01:11:32.600Z,6.93
2023-02-09T01:14:00.683Z,7.10
2023-02-09T01:16:28.835Z,7.70
2023-02-09T01:18:56.050Z,7.50
2023-02-09T01:21:23.247Z,7.03
2023-02-09T01:23:50.501Z,8.40
2023-02-09T01:26:17.487Z,7.87
2023-02-09T01:28:47.617Z,9.73
2023-02-09T01:31:34.977Z,8.70
2023-02-09T01:34:03.559Z,10.60
2023-02-09T01:36:32.350Z,11.33
2023-02-09T01:39:01.631Z,10.90
2023-02-09T01:41:28.471Z,10.00
2023-02-09T01:44:02.630Z,9.63
2023-02-09T01:46:31.258Z,8.37
2023-02-09T01:49:09.878Z,9.40
2023-02-09T01:51:41.745Z,8.10
2023-02-09T01:54:13.298Z,8.93
2023-02-09T01:56:44.967Z,8.70
2023-02-09T01:59:14.156Z,10.60
2023-02-09T02:01:41.847Z,9.83
2023-02-09T02:04:08.359Z,12.33
2023-02-09T02:06:34.813Z,11.93
2023-02-09T02:09:08.792Z,9.67
2023-02-09T02:11:36.421Z,9.40
2023-02-09T02:14:03.287Z,11.53
2023-02-09T02:17:13.030Z,9.63
2023-02-09T02:19:42.302Z,9.10
2023-02-09T02:22:34.438Z,8.27
2023-02-09T02:25:07.818Z,9.13
2023-02-09T02:28:00.526Z,8.50
2023-02-09T02:31:03.730Z,11.37
2023-02-09T02:33:56.772Z,9.83
2023-02-09T02:36:49.006Z,8.60
2023-02-09T02:39:26.574Z,9.77
2023-02-09T02:42:24.110Z,9.00
2023-02-09T02:45:06.610Z,8.80
2023-02-09T02:47:36.549Z,9.47
2023-02-09T02:50:14.298Z,9.30
2023-02-09T02:52:46.182Z,9.27
2023-02-09T02:55:17.044Z,9.27
2023-02-09T02:57:48.534Z,9.07
2023-02-09T03:00:35.463Z,8.50
2023-02-09T03:03:11.111Z,9.17
2023-02-09T03:05:38.377Z,8.80
2023-02-09T03:08:05.199Z,9.67
2023-02-09T03:10:37.509Z,8.53
2023-02-09T03:13:37.362Z,10.20
2023-02-09T03:16:16.063Z,9.37
2023-02-09T03:19:04.431Z,8.60
2023-02-09T03:21:36.792Z,9.33
2023-02-09T03:24:32.264Z,9.20
2023-02-09T03:27:06.963Z,9.87
2023-02-09T03:29:34.941Z,9.50
2023-02-09T03:32:01.534Z,9.50
2023-02-09T03:34:28.534Z,10.03
2023-02-09T03:36:57.411Z,9.60
2023-02-09T03:39:23.982Z,11.60
2023-02-09T03:41:50.347Z,10.30
2023-02-09T03:44:29.033Z,9.60
2023-02-09T03:46:58.849Z,9.60
2023-02-09T03:49:27.612Z,10.23
2023-02-09T03:51:54.270Z,10.00
2023-02-09T03:54:21.531Z,9.03
2023-02-09T03:56:47.977Z,9.13
2023-02-09T03:59:14.472Z,9.20
2023-02-09T04:01:40.976Z,10.27
2023-02-09T04:04:07.488Z,10.67
2023-02-09T04:06:35.330Z,11.80
2023-02-09T04:09:03.653Z,11.63
2023-02-09T04:11:30.652Z,11.13
2023-02-09T04:13:57.235Z,11.10
2023-02-09T04:16:24.101Z,11.37
2023-02-09T04:18:50.756Z,10.83
2023-02-09T04:21:17.201Z,11.10
2023-02-09T04:23:43.774Z,12.27
2023-02-09T04:26:10.268Z,10.07
2023-02-09T04:28:36.704Z,11.13
2023-02-09T04:31:03.958Z,11.27
2023-02-09T04:33:30.641Z,11.53
2023-02-09T04:35:57.333Z,11.57
2023-02-09T04:38:24.514Z,12.10
2023-02-09T04:40:53.218Z,10.40
2023-02-09T04:43:20.100Z,10.37
2023-02-09T04:45:46.692Z,10.10
2023-02-09T04:48:17.495Z,10.20
2023-02-09T04:50:44.432Z,11.00
2023-02-09T04:53:11.581Z,10.10
2023-02-09T04:55:42.960Z,10.00
2023-02-09T04:58:30.785Z,11.00
2023-02-09T05:00:57.585Z,9.30
2023-02-09T05:03:25.889Z,9.90
2023-02-09T05:05:57.498Z,10.30
2023-02-09T05:08:24.566Z,9.83
2023-02-09T05:10:52.172Z,11.70
2023-02-09T05:13:19.919Z,11.53
2023-02-09T05:15:46.895Z,11.80
2023-02-09T05:18:13.801Z,10.40
2023-02-09T05:20:40.471Z,10.97
2023-02-09T05:23:06.916Z,12.60
2023-02-09T05:25:33.316Z,10.93
2023-02-09T05:27:59.963Z,13.07
2023-02-09T05:30:29.379Z,12.20
2023-02-09T05:32:55.871Z,12.50
2023-02-09T05:35:22.251Z,10.27
2023-02-09T05:37:48.923Z,12.63
2023-02-09T05:40:15.745Z,12.50
2023-02-09T05:42:42.455Z,12.10
2023-02-09T05:45:09.612Z,12.90
2023-02-09T05:47:36.510Z,11.87
2023-02-09T05:50:03.198Z,11.67
2023-02-09T05:52:29.690Z,13.23
2023-02-09T05:54:56.073Z,13.20
2023-02-09T05:57:22.508Z,13.00
2023-02-09T05:59:48.995Z,13.60
2023-02-09T06:02:15.599Z,12.73
2023-02-09T06:04:42.027Z,11.90
2023-02-09T06:07:09.975Z,13.90
2023-02-09T06:09:38.041Z,16.80
2023-02-09T06:12:04.579Z,17.50
2023-02-09T06:14:30.972Z,13.97
2023-02-09T06:16:57.358Z,12.63
2023-02-09T06:19:23.834Z,12.27
2023-02-09T06:21:50.271Z,10.80
2023-02-09T06:24:17.167Z,11.60
2023-02-09T06:26:43.673Z,11.60
2023-02-09T06:29:10.211Z,13.27
2023-02-09T06:31:38.144Z,12.47
2023-02-09T06:34:05.714Z,11.20
2023-02-09T06:36:32.135Z,12.40
2023-02-09T06:38:58.580Z,12.30
2023-02-09T06:41:24.946Z,12.00
2023-02-09T06:43:51.580Z,11.60
2023-02-09T06:46:18.169Z,10.77
2023-02-09T06:48:44.631Z,10.97
2023-02-09T06:51:13.879Z,11.53
2023-02-09T06:53:42.671Z,12.57
2023-02-09T06:56:09.576Z,13.33
2023-02-09T06:58:37.321Z,11.90
2023-02-09T07:01:08.985Z,11.00
2023-02-09T07:03:36.027Z,11.50
2023-02-09T07:06:12.181Z,11.67
2023-02-09T07:08:39.407Z,11.70
2023-02-09T07:11:08.555Z,12.80
2023-02-09T07:13:35.726Z,11.10
2023-02-09T07:16:03.945Z,13.57
2023-02-09T07:18:30.460Z,12.00
2023-02-09T07:20:59.429Z,12.60
2023-02-09T07:23:26.068Z,13.90
2023-02-09T07:25:53.312Z,14.53
2023-02-09T07:28:20.698Z,13.47
2023-02-09T07:30:52.141Z,13.60
2023-02-09T07:33:19.955Z,13.87
2023-02-09T07:35:47.305Z,12.57
2023-02-09T07:38:14.346Z,11.63
2023-02-09T07:40:45.743Z,13.33
2023-02-09T07:43:13.704Z,16.03
2023-02-09T07:45:41.589Z,15.60
2023-02-09T07:48:10.643Z,15.13
2023-02-09T07:50:37.610Z,13.10
2023-02-09T07:53:04.012Z,13.30
2023-02-09T07:55:30.431Z,18.00
2023-02-09T07:57:56.859Z,16.83
2023-02-09T08:00:24.318Z,15.50
2023-02-09T08:02:50.945Z,17.67
2023-02-09T08:05:22.697Z,16.63
2023-02-09T08:07:49.187Z,17.37
2023-02-09T08:10:18.352Z,18.13
2023-02-09T08:12:59.896Z,16.77
2023-02-09T08:15:35.749Z,14.30
2023-02-09T08:18:07.504Z,14.80
2023-02-09T08:20:34.103Z,14.40
2023-02-09T08:23:08.868Z,15.80
2023-02-09T08:25:36.485Z,15.80
2023-02-09T08:28:04.584Z,16.43
2023-02-09T08:30:32.663Z,16.43
2023-02-09T08:32:59.141Z,14.00
2023-02-09T08:35:26.172Z,15.60
2023-02-09T08:37:52.532Z,14.87
2023-02-09T08:40:19.078Z,13.67
2023-02-09T08:42:45.580Z,14.80
2023-02-09T08:45:12.042Z,15.63
2023-02-09T08:47:38.846Z,14.53
2023-02-09T08:50:05.687Z,16.93
2023-02-09T08:52:32.160Z,15.20
2023-02-09T08:54:58.567Z,16.83
2023-02-09T08:57:38.133Z,17.43
2023-02-09T09:00:10.200Z,17.40
2023-02-09T09:02:36.626Z,17.87
2023-02-09T09:05:03.177Z,16.60
2023-02-09T09:07:29.620Z,17.07
2023-02-09T09:09:56.011Z,18.20
2023-02-09T09:12:22.550Z,17.80
2023-02-09T09:14:48.925Z,18.13
2023-02-09T09:17:15.326Z,16.97
2023-02-09T09:19:41.710Z,16.87
2023-02-09T09:22:08.110Z,16.33
2023-02-09T09:24:40.399Z,18.17
2023-02-09T09:27:10.863Z,18.30
2023-02-09T09:29:39.972Z,17.57
2023-02-09T09:32:07.758Z,17.30
2023-02-09T09:34:34.382Z,18.00
2023-02-09T09:37:00.783Z,19.00
2023-02-09T09:39:27.310Z,17.40
2023-02-09T09:41:59.331Z,16.47
2023-02-09T09:44:43.190Z,18.70
2023-02-09T09:47:17.563Z,16.70
2023-02-09T09:49:44.238Z,18.10
2023-02-09T09:52:13.290Z,18.80
2023-02-09T09:54:41.513Z,17.60
2023-02-09T09:57:24.816Z,16.17
2023-02-09T09:59:52.724Z,16.20
2023-02-09T10:02:26.907Z,17.27
2023-02-09T10:04:56.174Z,17.27
2023-02-09T10:07:30.829Z,17.03
2023-02-09T10:10:12.046Z,18.10
2023-02-09T10:12:44.067Z,17.73
2023-02-09T10:15:18.356Z,17.90
2023-02-09T10:17:44.782Z,17.40
2023-02-09T10:20:11.712Z,17.97
2023-02-09T10:22:38.204Z,18.00
2023-02-09T10:25:36.805Z,17.57
2023-02-09T10:28:06.511Z,17.03
2023-02-09T10:30:33.239Z,17.87
2023-02-09T10:33:01.823Z,17.27
2023-02-09T10:35:35.369Z,18.77
2023-02-09T10:38:02.755Z,19.27
2023-02-09T10:40:32.702Z,16.33
2023-02-09T10:43:05.600Z,18.93
2023-02-09T10:45:39.763Z,18.23
2023-02-09T10:48:11.961Z,18.10
2023-02-09T10:51:00.854Z,17.07
2023-02-09T10:53:40.546Z,18.37
2023-02-09T10:56:09.697Z,19.60
2023-02-09T10:58:37.766Z,17.90
2023-02-09T11:01:22.649Z,17.77
2023-02-09T11:04:04.365Z,17.07
2023-02-09T11:07:01.737Z,17.40
2023-02-09T11:09:33.228Z,17.90
2023-02-09T11:12:00.755Z,17.20
2023-02-09T11:14:28.070Z,19.17
2023-02-09T11:17:09.675Z,18.80
2023-02-09T11:20:04.076Z,18.17
2023-02-09T11:22:53.727Z,18.53
2023-02-09T11:25:31.256Z,17.90
2023-02-09T11:28:27.018Z,18.53
2023-02-09T11:30:59.474Z,18.10
2023-02-09T11:33:59.842Z,16.30
2023-02-09T11:37:05.362Z,17.17
2023-02-09T11:39:44.482Z,18.43
2023-02-09T11:42:44.473Z,15.70
2023-02-09T11:45:35.658Z,18.30
2023-02-09T11:48:31.413Z,18.00
2023-02-09T11:51:04.363Z,17.33
2023-02-09T11:53:55.474Z,17.20
2023-02-09T11:56:26.974Z,17.50
2023-02-09T11:59:28.796Z,18.30
2023-02-09T12:02:25.219Z,17.10
2023-02-09T12:04:58.815Z,16.47
2023-02-09T12:07:35.201Z,17.07
2023-02-09T12:10:29.379Z,17.77
2023-02-09T12:13:26.514Z,16.43
2023-02-09T12:15:58.292Z,18.47
2023-02-09T12:18:29.030Z,17.50
2023-02-09T12:20:58.166Z,18.87
2023-02-09T12:23:32.677Z,21.60
2023-02-09T12:26:11.985Z,20.33
2023-02-09T12:28:43.811Z,19.50
2023-02-09T12:31:22.713Z,17.33
2023-02-09T12:33:49.129Z,17.67
2023-02-09T12:36:16.063Z,17.53
2023-02-09T12:38:56.578Z,18.67
2023-02-09T12:41:40.979Z,19.00
2023-02-09T12:44:10.460Z,18.00
2023-02-09T12:46:46.576Z,17.70
2023-02-09T12:49:15.916Z,18.90
2023-02-09T12:51:53.238Z,18.40
2023-02-09T12:54:56.649Z,17.07
2023-02-09T12:57:23.840Z,17.33
2023-02-09T12:59:50.436Z,18.00
2023-02-09T13:02:23.992Z,17.97
2023-02-09T13:04:56.268Z,17.83
2023-02-09T13:07:44.969Z,16.23
2023-02-09T13:10:42.525Z,16.80
2023-02-09T13:13:08.857Z,16.33
2023-02-09T13:16:05.221Z,17.80
2023-02-09T13:18:53.468Z,16.67
2023-02-09T13:21:52.551Z,17.57
2023-02-09T13:24:32.820Z,17.60
2023-02-09T13:27:00.793Z,16.37
2023-02-09T13:29:32.363Z,18.30
2023-02-09T13:32:11.262Z,16.33
2023-02-09T13:34:46.601Z,16.73
2023-02-09T13:37:38.038Z,16.10
2023-02-09T13:40:14.937Z,16.43
2023-02-09T13:42:54.961Z,17.33
2023-02-09T13:45:23.932Z,17.03
2023-02-09T13:47:51.294Z,16.90
2023-02-09T13:50:20.039Z,15.40
2023-02-09T13:52:46.677Z,16.00
2023-02-09T13:55:17.130Z,15.80
2023-02-09T13:57:46.292Z,16.80
2023-02-09T14:00:31.104Z,15.90
2023-02-09T14:03:03.952Z,15.47
2023-02-09T14:05:51.757Z,16.77
2023-02-09T14:08:19.548Z,17.90
2023-02-09T14:11:16.767Z,17.10
2023-02-09T14:13:48.439Z,18.03
2023-02-09T14:16:17.512Z,19.00
2023-02-09T14:18:57.155Z,19.53
2023-02-09T14:21:32.268Z,18.97
2023-02-09T14:23:58.638Z,18.43
2023-02-09T14:26:33.232Z,19.20
2023-02-09T14:29:19.420Z,17.23
2023-02-09T14:31:51.735Z,18.00
2023-02-09T14:34:38.411Z,16.17
2023-02-09T14:37:10.681Z,16.90
2023-02-09T14:40:04.634Z,16.80
2023-02-09T14:42:33.419Z,18.03
2023-02-09T14:45:14.889Z,17.23
2023-02-09T14:47:43.908Z,16.67
2023-02-09T14:50:23.460Z,17.20
2023-02-09T14:53:04.231Z,17.87
2023-02-09T14:55:31.854Z,19.20
2023-02-09T14:57:58.241Z,19.40
2023-02-09T15:00:28.202Z,19.40
2023-02-09T15:02:55.216Z,19.27
2023-02-09T15:05:23.727Z,18.17
2023-02-09T15:07:54.398Z,20.00
2023-02-09T15:10:28.697Z,19.33
2023-02-09T15:12:56.150Z,20.70
2023-02-09T15:15:24.045Z,19.37
2023-02-09T15:17:51.788Z,18.73
2023-02-09T15:20:21.615Z,19.47
2023-02-09T15:22:48.045Z,16.73
2023-02-09T15:25:14.875Z,18.60
2023-02-09T15:27:52.811Z,18.10
2023-02-09T15:30:25.320Z,15.60
2023-02-09T15:32:52.457Z,17.20
2023-02-09T15:35:22.625Z,16.00
2023-02-09T15:37:52.264Z,15.93
2023-02-09T15:40:44.061Z,17.20
2023-02-09T15:43:33.826Z,18.77
2023-02-09T15:46:06.449Z,17.73
2023-02-09T15:48:32.997Z,20.67
2023-02-09T15:51:00.337Z,18.43
2023-02-09T15:53:27.374Z,19.20
2023-02-09T15:55:58.533Z,19.20
2023-02-09T15:58:35.669Z,18.20
2023-02-09T16:01:03.060Z,20.17
2023-02-09T16:03:31.790Z,18.80
2023-02-09T16:06:19.198Z,18.57
2023-02-09T16:08:47.170Z,19.37
2023-02-09T16:11:23.201Z,17.83
2023-02-09T16:13:50.150Z,18.00
2023-02-09T16:16:19.707Z,17.70
2023-02-09T16:18:46.987Z,19.40
2023-02-09T16:21:26.882Z,18.50
2023-02-09T16:23:55.750Z,17.80
2023-02-09T16:26:24.311Z,17.47
2023-02-09T16:28:51.912Z,15.40
2023-02-09T16:31:19.247Z,16.87
2023-02-09T16:33:46.513Z,16.70
2023-02-09T16:36:16.226Z,14.87
2023-02-09T16:38:43.078Z,15.60
2023-02-09T16:41:33.264Z,17.60
2023-02-09T16:44:01.077Z,19.10
2023-02-09T16:46:31.472Z,16.30
2023-02-09T16:49:00.614Z,17.10
2023-02-09T16:51:27.249Z,17.13
2023-02-09T16:53:53.833Z,16.17
2023-02-09T16:56:20.611Z,13.70
2023-02-09T16:58:48.345Z,13.00
2023-02-09T17:01:22.534Z,16.50
2023-02-09T17:03:51.955Z,17.93
2023-02-09T17:06:21.875Z,16.87
2023-02-09T17:08:48.753Z,14.47
2023-02-09T17:11:20.580Z,12.97
2023-02-09T17:13:47.647Z,13.20
2023-02-09T17:16:23.382Z,13.47
2023-02-09T17:18:53.412Z,14.67
2023-02-09T17:21:23.514Z,15.20
2023-02-09T17:23:50.485Z,12.47
2023-02-09T17:26:17.206Z,12.13
2023-02-09T17:28:44.784Z,12.80
2023-02-09T17:31:20.154Z,12.77
2023-02-09T17:33:50.031Z,13.03
2023-02-09T17:36:26.868Z,12.87
2023-02-09T17:38:55.630Z,13.47
2023-02-09T17:41:27.715Z,13.40
2023-02-09T17:43:56.774Z,12.33
2023-02-09T17:46:23.364Z,12.03
2023-02-09T17:48:49.819Z,13.10
2023-02-09T17:51:30.817Z,11.70
2023-02-09T17:53:57.662Z,12.70
2023-02-09T17:56:24.099Z,13.47
2023-02-09T17:58:50.520Z,12.60
2023-02-09T18:01:29.042Z,13.33
2023-02-09T18:03:57.897Z,13.57
2023-02-09T18:06:39.085Z,14.90
2023-02-09T18:09:08.025Z,16.50
2023-02-09T18:11:44.952Z,16.50
2023-02-09T18:14:16.016Z,16.93
2023-02-09T18:16:43.723Z,15.60
2023-02-09T18:19:11.395Z,17.17
2023-02-09T18:21:38.507Z,15.30
2023-02-09T18:24:06.296Z,16.43
2023-02-09T18:26:33.692Z,18.23
2023-02-09T18:29:00.080Z,16.67
2023-02-09T18:31:26.499Z,15.83
2023-02-09T18:33:54.091Z,16.03
2023-02-09T18:36:20.733Z,13.67
2023-02-09T18:38:48.147Z,14.60
2023-02-09T18:41:14.933Z,14.50
2023-02-09T18:43:41.347Z,16.80
2023-02-09T18:46:07.955Z,15.93
2023-02-09T18:48:34.463Z,15.47
2023-02-09T18:51:00.846Z,16.43
2023-02-09T18:53:27.291Z,16.40
2023-02-09T18:55:53.882Z,17.03
2023-02-09T18:58:20.519Z,18.60
2023-02-09T19:00:46.989Z,17.87
2023-02-09T19:03:13.721Z,19.03
2023-02-09T19:05:40.777Z,18.57
2023-02-09T19:08:07.471Z,16.97
2023-02-09T19:10:35.830Z,17.63
2023-02-09T19:13:03.690Z,18.47
2023-02-09T19:15:31.879Z,15.97
2023-02-09T19:17:58.680Z,15.20
2023-02-09T19:20:27.231Z,13.40
2023-02-09T19:22:54.808Z,14.47
2023-02-09T19:25:23.417Z,13.23
2023-02-09T19:27:49.957Z,16.30
2023-02-09T19:30:24.613Z,15.27
2023-02-09T19:32:52.712Z,14.90
2023-02-09T19:35:22.264Z,15.93
2023-02-09T19:37:56.938Z,14.67
2023-02-09T19:40:33.665Z,14.00
2023-02-09T19:43:00.087Z,17.80
2023-02-09T19:45:26.544Z,15.40
2023-02-09T19:47:53.024Z,16.07
2023-02-09T19:50:19.653Z,18.53
2023-02-09T19:52:47.506Z,18.97
2023-02-09T19:55:14.748Z,18.60
2023-02-09T19:57:42.532Z,16.83
2023-02-09T20:00:14.527Z,17.40
2023-02-09T20:02:40.948Z,16.03
2023-02-09T20:05:07.831Z,15.57
2023-02-09T20:07:34.378Z,14.27
2023-02-09T20:10:00.806Z,14.07
2023-02-09T20:12:27.363Z,14.70
2023-02-09T20:14:54.467Z,15.10
2023-02-09T20:17:21.521Z,14.43
2023-02-09T20:19:47.933Z,14.70
2023-02-09T20:22:14.304Z,16.47
2023-02-09T20:24:40.840Z,18.43
2023-02-09T20:27:07.685Z,19.77
2023-02-09T20:29:36.823Z,21.37
2023-02-09T20:32:04.293Z,18.90
2023-02-09T20:34:30.697Z,20.80
2023-02-09T20:36:57.578Z,18.93
2023-02-09T20:39:24.112Z,16.97
2023-02-09T20:42:31.194Z,17.03
2023-02-09T20:45:16.264Z,17.27
2023-02-09T20:47:42.992Z,18.00
2023-02-09T20:50:09.613Z,20.00
2023-02-09T20:52:36.044Z,18.00
2023-02-09T20:55:02.445Z,19.83
2023-02-09T20:57:31.702Z,19.20
2023-02-09T20:59:59.980Z,20.60
2023-02-09T21:02:27.217Z,19.70
2023-02-09T21:04:55.456Z,19.93
2023-02-09T21:07:21.855Z,20.03
2023-02-09T21:09:48.341Z,18.90
2023-02-09T21:12:14.756Z,19.27
2023-02-09T21:14:44.963Z,21.47
2023-02-09T21:17:11.595Z,19.10
2023-02-09T21:19:38.180Z,18.27
2023-02-09T21:22:04.973Z,18.10
2023-02-09T21:24:31.657Z,18.23
2023-02-09T21:27:00.603Z,20.03
2023-02-09T21:29:29.110Z,19.10
2023-02-09T21:31:56.392Z,16.57
2023-02-09T21:34:23.142Z,17.80
2023-02-09T21:36:49.593Z,19.30
2023-02-09T21:39:16.005Z,16.80
2023-02-09T21:42:00.967Z,18.10
2023-02-09T21:44:27.406Z,17.13
2023-02-09T21:46:54.448Z,18.90
2023-02-09T21:49:20.939Z,18.33
2023-02-09T21:51:47.422Z,16.90
2023-02-09T21:54:16.433Z,18.07
2023-02-09T21:56:43.650Z,15.60
2023-02-09T21:59:10.416Z,17.03
2023-02-09T22:01:36.953Z,16.80
2023-02-09T22:04:04.211Z,16.63
2023-02-09T22:06:31.468Z,17.07
2023-02-09T22:09:00.295Z,16.33
2023-02-09T22:11:26.841Z,15.73
2023-02-09T22:13:53.234Z,15.97
2023-02-09T22:16:22.075Z,17.63
2023-02-09T22:18:48.542Z,16.03
2023-02-09T22:21:15.196Z,18.23
2023-02-09T22:23:41.853Z,18.27
2023-02-09T22:26:08.414Z,17.97
2023-02-09T22:28:36.688Z,17.73
2023-02-09T22:31:12.289Z,18.57
2023-02-09T22:33:39.161Z,16.60
2023-02-09T22:36:17.253Z,16.80
2023-02-09T22:38:47.078Z,15.90
2023-02-09T22:41:22.402Z,16.13
2023-02-09T22:43:49.926Z,15.03
2023-02-09T22:46:17.219Z,14.70
2023-02-09T22:48:49.295Z,14.30
2023-02-09T22:51:17.675Z,15.57
2023-02-09T22:53:44.549Z,14.80
2023-02-09T22:56:12.387Z,14.93
2023-02-09T22:58:39.334Z,15.33
2023-02-09T23:01:07.164Z,14.23
2023-02-09T23:03:34.133Z,18.17
2023-02-09T23:06:05.815Z,18.87
2023-02-09T23:08:32.808Z,19.87
2023-02-09T23:11:03.915Z,18.87
2023-02-09T23:13:35.143Z,19.27
2023-02-09T23:16:11.782Z,21.20
2023-02-09T23:18:38.991Z,20.70
2023-02-09T23:21:08.096Z,19.40
2023-02-09T23:23:34.949Z,18.80
2023-02-09T23:26:01.546Z,21.57
2023-02-09T23:28:28.268Z,19.53
2023-02-09T23:30:54.724Z,20.50
2023-02-09T23:33:21.583Z,21.93
2023-02-09T23:35:48.414Z,23.40
2023-02-09T23:38:15.424Z,21.50
2023-02-09T23:40:41.815Z,24.40
2023-02-09T23:43:08.300Z,20.37
2023-02-09T23:45:34.712Z,28.37
2023-02-09T23:48:01.346Z,25.40
2023-02-09T23:50:27.849Z,23.60
2023-02-09T23:52:54.281Z,24.30
2023-02-09T23:55:20.717Z,21.03
2023-02-09T23:57:47.203Z,20.10
